Time,TemperatureF,DewpointF,PressureIn,WindDirection,WindDirectionDegrees,WindSpeedMPH,WindSpeedGustMPH,Humidity,HourlyPrecipIn,Conditions,Clouds,dailyrainin,SoftwareType,DateUTC
2013-03-04 00:00:00,33.0,22.2,29.90,WSW,250,1.0,2.0,64,0.00,,,0.00,VWS V14.01,2013-03-04 05:00:00,
2013-03-04 00:05:00,33.0,22.2,29.90,West,260,1.0,6.0,64,0.00,,,0.00,VWS V14.01,2013-03-04 05:05:00,
2013-03-04 00:10:00,33.0,22.2,29.90,NE,38,1.0,3.0,64,0.00,,,0.00,VWS V14.01,2013-03-04 05:10:00,
2013-03-04 00:15:00,33.0,22.2,29.90,WNW,293,0.0,0.0,64,0.00,,,0.00,VWS V14.01,2013-03-04 05:15:00,
2013-03-04 00:20:00,33.1,21.9,29.90,NNW,334,1.0,1.0,63,0.00,,,0.00,VWS V14.01,2013-03-04 05:20:00,
2013-03-04 00:25:00,33.2,22.0,29.90,WNW,296,0.0,2.0,63,0.00,,,0.00,VWS V14.01,2013-03-04 05:25:00,
2013-03-04 00:30:00,33.3,22.1,29.90,NW,324,1.0,1.0,63,0.00,,,0.00,VWS V14.01,2013-03-04 05:30:00,
2013-03-04 00:35:00,33.3,22.1,29.91,West,275,0.0,1.0,63,0.00,,,0.00,VWS V14.01,2013-03-04 05:35:00,
2013-03-04 00:40:00,33.4,22.2,29.90,WNW,282,3.0,6.0,63,0.00,,,0.00,VWS V14.01,2013-03-04 05:40:00,
2013-03-04 00:45:00,33.4,22.2,29.90,NW,307,1.0,1.0,63,0.00,,,0.00,VWS V14.01,2013-03-04 05:45:00,
2013-03-04 00:50:00,33.4,22.2,29.90,NNW,346,0.0,2.0,63,0.00,,,0.00,VWS V14.01,2013-03-04 05:50:00,
2013-03-04 00:55:00,33.4,22.5,29.90,NNW,348,2.0,3.0,64,0.00,,,0.00,VWS V14.01,2013-03-04 05:55:00,
2013-03-04 01:00:00,33.4,22.5,29.90,North,355,2.0,2.0,64,0.00,,,0.00,VWS V14.01,2013-03-04 06:00:00,
2013-03-04 01:05:00,33.3,22.1,29.91,NW,314,0.0,2.0,63,0.00,,,0.00,VWS V14.01,2013-03-04 06:05:00,
2013-03-04 01:10:00,33.2,22.0,29.90,ESE,121,2.0,5.0,63,0.00,,,0.00,VWS V14.01,2013-03-04 06:10:00,
2013-03-04 01:15:00,33.2,22.0,29.91,SE,124,2.0,2.0,63,0.00,,,0.00,VWS V14.01,2013-03-04 06:15:00,
2013-03-04 01:20:00,33.1,22.3,29.91,West,267,3.0,4.0,64,0.00,,,0.00,VWS V14.01,2013-03-04 06:20:00,
2013-03-04 01:25:00,33.1,21.9,29.91,NNW,328,2.0,2.0,63,0.00,,,0.00,VWS V14.01,2013-03-04 06:25:00,
2013-03-04 01:30:00,33.0,22.2,29.91,NW,313,1.0,2.0,64,0.00,,,0.00,VWS V14.01,2013-03-04 06:30:00,
2013-03-04 01:35:00,33.0,22.2,29.91,North,355,1.0,1.0,64,0.00,,,0.00,VWS V14.01,2013-03-04 06:35:00,
2013-03-04 01:40:00,32.9,22.4,29.91,WNW,289,2.0,2.0,65,0.00,,,0.00,VWS V14.01,2013-03-04 06:40:00,
2013-03-04 01:45:00,32.9,22.1,29.91,NNE,30,1.0,1.0,64,0.00,,,0.00,VWS V14.01,2013-03-04 06:45:00,
2013-03-04 01:50:00,32.9,22.4,29.91,NW,322,1.0,1.0,65,0.00,,,0.00,VWS V14.01,2013-03-04 06:50:00,
2013-03-04 01:55:00,32.9,22.4,29.91,WSW,250,0.0,1.0,65,0.00,,,0.00,VWS V14.01,2013-03-04 06:55:00,
2013-03-04 02:00:00,32.8,22.3,29.91,West,263,0.0,1.0,65,0.00,,,0.00,VWS V14.01,2013-03-04 07:00:00,
2013-03-04 02:05:00,32.8,22.3,29.91,NE,36,0.0,0.0,65,0.00,,,0.00,VWS V14.01,2013-03-04 07:05:00,
2013-03-04 02:10:00,32.8,22.3,29.91,WSW,251,2.0,5.0,65,0.00,,,0.00,VWS V14.01,2013-03-04 07:10:00,
2013-03-04 02:15:00,32.8,22.3,29.91,NNW,334,0.0,4.0,65,0.00,,,0.00,VWS V14.01,2013-03-04 07:15:00,
2013-03-04 02:20:00,32.8,22.7,29.91,WSW,254,0.0,0.0,66,0.00,,,0.00,VWS V14.01,2013-03-04 07:20:00,
2013-03-04 02:25:00,32.7,22.6,29.91,WSW,254,0.0,1.0,66,0.00,,,0.00,VWS V14.01,2013-03-04 07:25:00,
2013-03-04 02:30:00,32.7,22.2,29.91,North,355,0.0,1.0,65,0.00,,,0.00,VWS V14.01,2013-03-04 07:30:00,
2013-03-04 02:35:00,32.7,22.2,29.91,NW,306,1.0,2.0,65,0.00,,,0.00,VWS V14.01,2013-03-04 07:35:00,
2013-03-04 02:40:00,32.7,21.9,29.91,SW,236,4.0,5.0,64,0.00,,,0.00,VWS V14.01,2013-03-04 07:40:00,
2013-03-04 02:45:00,32.8,21.6,29.91,NNW,331,0.0,0.0,63,0.00,,,0.00,VWS V14.01,2013-03-04 07:45:00,
2013-03-04 02:50:00,32.7,21.1,29.91,ENE,75,0.0,0.0,62,0.00,,,0.00,VWS V14.01,2013-03-04 07:50:00,
2013-03-04 02:55:00,32.6,21.0,29.91,West,263,1.0,2.0,62,0.00,,,0.00,VWS V14.01,2013-03-04 07:55:00,
2013-03-04 03:00:00,32.5,20.9,29.91,NE,39,3.0,5.0,62,0.00,,,0.00,VWS V14.01,2013-03-04 08:00:00,
2013-03-04 03:05:00,32.3,20.8,29.91,NNW,331,1.0,4.0,62,0.00,,,0.00,VWS V14.01,2013-03-04 08:05:00,
2013-03-04 03:10:00,32.1,20.6,29.91,NNW,327,1.0,1.0,62,0.00,,,0.00,VWS V14.01,2013-03-04 08:10:00,
2013-03-04 03:15:00,32.0,20.5,29.91,WSW,255,0.0,0.0,62,0.00,,,0.00,VWS V14.01,2013-03-04 08:15:00,
2013-03-04 03:20:00,31.8,20.7,29.91,NW,313,2.0,3.0,63,0.00,,,0.00,VWS V14.01,2013-03-04 08:20:00,
2013-03-04 03:25:00,31.7,20.6,29.91,NE,50,0.0,0.0,63,0.00,,,0.00,VWS V14.01,2013-03-04 08:25:00,
2013-03-04 03:30:00,31.5,20.7,29.91,NW,314,0.0,2.0,64,0.00,,,0.00,VWS V14.01,2013-03-04 08:30:00,
2013-03-04 03:35:00,31.4,20.3,29.92,WSW,238,1.0,2.0,63,0.00,,,0.00,VWS V14.01,2013-03-04 08:35:00,
2013-03-04 03:40:00,31.3,20.5,29.92,NE,41,0.0,0.0,64,0.00,,,0.00,VWS V14.01,2013-03-04 08:40:00,
2013-03-04 03:45:00,31.2,20.5,29.92,NNW,331,1.0,1.0,64,0.00,,,0.00,VWS V14.01,2013-03-04 08:45:00,
2013-03-04 03:50:00,31.1,20.4,29.92,West,265,0.0,0.0,64,0.00,,,0.00,VWS V14.01,2013-03-04 08:50:00,
2013-03-04 03:55:00,30.9,20.2,29.92,WNW,290,2.0,5.0,64,0.00,,,0.00,VWS V14.01,2013-03-04 08:55:00,
2013-03-04 04:00:00,30.8,19.7,29.92,SSW,204,1.0,1.0,63,0.00,,,0.00,VWS V14.01,2013-03-04 09:00:00,
2013-03-04 04:05:00,30.7,20.0,29.92,NNW,338,0.0,0.0,64,0.00,,,0.00,VWS V14.01,2013-03-04 09:05:00,
2013-03-04 04:10:00,30.5,19.4,29.93,NW,317,1.0,4.0,63,0.00,,,0.00,VWS V14.01,2013-03-04 09:10:00,
2013-03-04 04:15:00,30.4,19.3,29.93,NNE,22,0.0,0.0,63,0.00,,,0.00,VWS V14.01,2013-03-04 09:15:00,
2013-03-04 04:20:00,30.3,19.2,29.93,NW,306,0.0,1.0,63,0.00,,,0.00,VWS V14.01,2013-03-04 09:20:00,
2013-03-04 04:25:00,30.2,19.1,29.93,NNE,28,0.0,3.0,63,0.00,,,0.00,VWS V14.01,2013-03-04 09:25:00,
2013-03-04 04:30:00,30.1,18.7,29.93,WNW,287,0.0,2.0,62,0.00,,,0.00,VWS V14.01,2013-03-04 09:30:00,
2013-03-04 04:35:00,30.1,18.7,29.93,NW,325,5.0,6.0,62,0.00,,,0.00,VWS V14.01,2013-03-04 09:35:00,
2013-03-04 04:40:00,30.0,19.0,29.93,NE,40,4.0,5.0,63,0.00,,,0.00,VWS V14.01,2013-03-04 09:40:00,
2013-03-04 04:45:00,30.0,19.0,29.93,West,269,0.0,0.0,63,0.00,,,0.00,VWS V14.01,2013-03-04 09:45:00,
2013-03-04 04:50:00,29.9,18.9,29.94,West,270,1.0,5.0,63,0.00,,,0.00,VWS V14.01,2013-03-04 09:50:00,
2013-03-04 04:55:00,29.8,18.8,29.94,North,355,1.0,2.0,63,0.00,,,0.00,VWS V14.01,2013-03-04 09:55:00,
2013-03-04 05:00:00,29.7,18.3,29.94,NW,313,3.0,3.0,62,0.00,,,0.00,VWS V14.01,2013-03-04 10:00:00,
2013-03-04 05:05:00,29.7,18.3,29.94,WNW,286,1.0,1.0,62,0.00,,,0.00,VWS V14.01,2013-03-04 10:05:00,
2013-03-04 05:10:00,29.6,18.2,29.94,WNW,291,2.0,2.0,62,0.00,,,0.00,VWS V14.01,2013-03-04 10:10:00,
2013-03-04 05:15:00,29.5,18.5,29.94,SSW,210,0.0,2.0,63,0.00,,,0.00,VWS V14.01,2013-03-04 10:15:00,
2013-03-04 05:20:00,29.4,18.4,29.94,West,279,0.0,0.0,63,0.00,,,0.00,VWS V14.01,2013-03-04 10:20:00,
2013-03-04 05:25:00,29.4,18.4,29.94,SSE,147,0.0,1.0,63,0.00,,,0.00,VWS V14.01,2013-03-04 10:25:00,
2013-03-04 05:30:00,29.3,18.3,29.95,NNW,347,4.0,4.0,63,0.00,,,0.00,VWS V14.01,2013-03-04 10:30:00,
2013-03-04 05:35:00,29.3,18.3,29.95,West,272,0.0,1.0,63,0.00,,,0.00,VWS V14.01,2013-03-04 10:35:00,
2013-03-04 05:40:00,29.2,18.2,29.95,NNW,346,0.0,1.0,63,0.00,,,0.00,VWS V14.01,2013-03-04 10:40:00,
2013-03-04 05:45:00,29.2,18.5,29.95,WNW,289,3.0,6.0,64,0.00,,,0.00,VWS V14.01,2013-03-04 10:45:00,
2013-03-04 05:50:00,29.2,18.5,29.95,SW,224,0.0,1.0,64,0.00,,,0.00,VWS V14.01,2013-03-04 10:50:00,
2013-03-04 05:55:00,29.1,18.5,29.95,NE,47,0.0,0.0,64,0.00,,,0.00,VWS V14.01,2013-03-04 10:55:00,
2013-03-04 06:00:00,29.1,18.5,29.95,WNW,296,0.0,1.0,64,0.00,,,0.00,VWS V14.01,2013-03-04 11:00:00,
2013-03-04 06:05:00,29.1,18.5,29.95,SSE,157,2.0,3.0,64,0.00,,,0.00,VWS V14.01,2013-03-04 11:05:00,
2013-03-04 06:10:00,29.0,18.4,29.96,West,279,0.0,2.0,64,0.00,,,0.00,VWS V14.01,2013-03-04 11:10:00,
2013-03-04 06:15:00,29.0,18.4,29.96,NE,43,0.0,1.0,64,0.00,,,0.00,VWS V14.01,2013-03-04 11:15:00,
2013-03-04 06:20:00,28.9,18.3,29.96,NNW,345,0.0,1.0,64,0.00,,,0.00,VWS V14.01,2013-03-04 11:20:00,
2013-03-04 06:25:00,28.9,18.3,29.96,NW,309,0.0,1.0,64,0.00,,,0.00,VWS V14.01,2013-03-04 11:25:00,
2013-03-04 06:30:00,28.9,18.3,29.96,WNW,292,0.0,0.0,64,0.00,,,0.00,VWS V14.01,2013-03-04 11:30:00,
2013-03-04 06:35:00,28.8,18.2,29.96,NW,325,0.0,1.0,64,0.00,,,0.00,VWS V14.01,2013-03-04 11:35:00,
2013-03-04 06:40:00,28.8,18.5,29.97,NW,325,0.0,1.0,65,0.00,,,0.00,VWS V14.01,2013-03-04 11:40:00,
2013-03-04 06:45:00,28.7,18.4,29.97,WNW,295,0.0,1.0,65,0.00,,,0.00,VWS V14.01,2013-03-04 11:45:00,
2013-03-04 06:50:00,28.6,18.3,29.97,NW,310,0.0,1.0,65,0.00,,,0.00,VWS V14.01,2013-03-04 11:50:00,
2013-03-04 06:55:00,28.6,18.3,29.97,WNW,296,0.0,1.0,65,0.00,,,0.00,VWS V14.01,2013-03-04 11:55:00,
2013-03-04 07:00:00,28.6,18.3,29.97,WNW,290,0.0,2.0,65,0.00,,,0.00,VWS V14.01,2013-03-04 12:00:00,
2013-03-04 07:05:00,28.7,18.4,29.98,West,261,0.0,0.0,65,0.00,,,0.00,VWS V14.01,2013-03-04 12:05:00,
2013-03-04 07:10:00,28.7,18.8,29.98,NW,312,0.0,2.0,66,0.00,,,0.00,VWS V14.01,2013-03-04 12:10:00,
2013-03-04 07:15:00,28.7,18.8,29.98,WSW,243,0.0,2.0,66,0.00,,,0.00,VWS V14.01,2013-03-04 12:15:00,
2013-03-04 07:20:00,28.8,18.9,29.98,WSW,255,1.0,4.0,66,0.00,,,0.00,VWS V14.01,2013-03-04 12:20:00,
2013-03-04 07:25:00,29.0,18.7,29.98,NW,321,1.0,1.0,65,0.00,,,0.00,VWS V14.01,2013-03-04 12:25:00,
2013-03-04 07:30:00,29.1,18.8,29.98,NNW,343,0.0,1.0,65,0.00,,,0.00,VWS V14.01,2013-03-04 12:30:00,
2013-03-04 07:35:00,29.3,19.0,29.98,NW,319,2.0,2.0,65,0.00,,,0.00,VWS V14.01,2013-03-04 12:35:00,
2013-03-04 07:40:00,29.5,18.8,29.98,NNW,328,0.0,1.0,64,0.00,,,0.00,VWS V14.01,2013-03-04 12:40:00,
2013-03-04 07:45:00,29.7,18.7,29.98,South,169,1.0,4.0,63,0.00,,,0.00,VWS V14.01,2013-03-04 12:45:00,
2013-03-04 07:50:00,29.9,18.9,29.98,NNE,13,2.0,2.0,63,0.00,,,0.00,VWS V14.01,2013-03-04 12:50:00,
2013-03-04 07:55:00,30.1,19.0,29.99,WSW,255,4.0,4.0,63,0.00,,,0.00,VWS V14.01,2013-03-04 12:55:00,
2013-03-04 08:00:00,30.3,19.2,29.99,WSW,254,5.0,5.0,63,0.00,,,0.00,VWS V14.01,2013-03-04 13:00:00,
2013-03-04 08:05:00,30.5,19.0,29.98,WNW,302,2.0,2.0,62,0.00,,,0.00,VWS V14.01,2013-03-04 13:05:00,
2013-03-04 08:10:00,30.7,19.2,29.98,NNE,21,5.0,5.0,62,0.00,,,0.00,VWS V14.01,2013-03-04 13:10:00,
2013-03-04 08:15:00,30.9,19.0,29.99,SW,225,2.0,2.0,61,0.00,,,0.00,VWS V14.01,2013-03-04 13:15:00,
2013-03-04 08:20:00,31.2,19.0,29.98,NW,315,4.0,5.0,60,0.00,,,0.00,VWS V14.01,2013-03-04 13:20:00,
2013-03-04 08:25:00,31.4,19.1,29.99,WSW,244,2.0,3.0,60,0.00,,,0.00,VWS V14.01,2013-03-04 13:25:00,
2013-03-04 08:30:00,31.7,19.0,29.99,NNE,28,0.0,1.0,59,0.00,,,0.00,VWS V14.01,2013-03-04 13:30:00,
2013-03-04 08:35:00,31.9,19.2,29.99,WNW,300,0.0,5.0,59,0.00,,,0.00,VWS V14.01,2013-03-04 13:35:00,
2013-03-04 08:40:00,32.2,19.1,29.99,NNW,337,1.0,5.0,58,0.00,,,0.00,VWS V14.01,2013-03-04 13:40:00,
2013-03-04 08:45:00,32.4,18.9,29.99,North,360,0.0,6.0,57,0.00,,,0.00,VWS V14.01,2013-03-04 13:45:00,
2013-03-04 08:50:00,32.5,19.0,30.00,WNW,286,7.0,7.0,57,0.00,,,0.00,VWS V14.01,2013-03-04 13:50:00,
2013-03-04 08:55:00,32.6,19.1,30.00,WNW,302,0.0,2.0,57,0.00,,,0.00,VWS V14.01,2013-03-04 13:55:00,
2013-03-04 09:00:00,33.0,19.4,30.00,ENE,61,0.0,1.0,57,0.00,,,0.00,VWS V14.01,2013-03-04 14:00:00,
2013-03-04 09:05:00,33.4,19.4,30.00,WSW,240,7.0,7.0,56,0.00,,,0.00,VWS V14.01,2013-03-04 14:05:00,
2013-03-04 09:10:00,33.5,19.1,30.00,West,271,1.0,2.0,55,0.00,,,0.00,VWS V14.01,2013-03-04 14:10:00,
2013-03-04 09:15:00,33.4,19.0,29.99,NW,320,2.0,5.0,55,0.00,,,0.00,VWS V14.01,2013-03-04 14:15:00,
2013-03-04 09:20:00,33.6,19.6,29.99,NE,47,2.0,2.0,56,0.00,,,0.00,VWS V14.01,2013-03-04 14:20:00,
2013-03-04 09:25:00,33.8,19.4,29.99,West,274,3.0,7.0,55,0.00,,,0.00,VWS V14.01,2013-03-04 14:25:00,
2013-03-04 09:30:00,34.0,19.5,29.99,WNW,284,0.0,2.0,55,0.00,,,0.00,VWS V14.01,2013-03-04 14:30:00,
2013-03-04 09:35:00,34.2,19.7,29.99,North,355,3.0,6.0,55,0.00,,,0.00,VWS V14.01,2013-03-04 14:35:00,
2013-03-04 09:40:00,34.4,19.9,29.99,SW,232,2.0,3.0,55,0.00,,,0.00,VWS V14.01,2013-03-04 14:40:00,
2013-03-04 09:45:00,34.5,19.6,30.00,SW,217,4.0,8.0,54,0.00,,,0.00,VWS V14.01,2013-03-04 14:45:00,
2013-03-04 09:50:00,34.5,19.6,29.99,SW,236,1.0,4.0,54,0.00,,,0.00,VWS V14.01,2013-03-04 14:50:00,
2013-03-04 09:55:00,34.4,19.0,30.00,West,276,1.0,4.0,53,0.00,,,0.00,VWS V14.01,2013-03-04 14:55:00,
2013-03-04 10:00:00,34.2,19.3,30.00,NNW,329,1.0,4.0,54,0.00,,,0.00,VWS V14.01,2013-03-04 15:00:00,
2013-03-04 10:05:00,34.6,20.1,29.99,NW,304,5.0,7.0,55,0.00,,,0.00,VWS V14.01,2013-03-04 15:05:00,
2013-03-04 10:10:00,34.8,19.9,29.99,NNW,329,4.0,10.0,54,0.00,,,0.00,VWS V14.01,2013-03-04 15:10:00,
2013-03-04 10:15:00,34.9,20.0,30.00,SSW,213,1.0,2.0,54,0.00,,,0.00,VWS V14.01,2013-03-04 15:15:00,
2013-03-04 10:20:00,35.2,19.8,29.99,NE,38,2.0,8.0,53,0.00,,,0.00,VWS V14.01,2013-03-04 15:20:00,
2013-03-04 10:25:00,35.2,20.2,29.99,NNW,336,1.0,5.0,54,0.00,,,0.00,VWS V14.01,2013-03-04 15:25:00,
2013-03-04 10:30:00,35.4,20.0,29.99,NNE,26,3.0,3.0,53,0.00,,,0.00,VWS V14.01,2013-03-04 15:30:00,
2013-03-04 10:35:00,35.8,20.4,29.99,NW,304,8.0,8.0,53,0.00,,,0.00,VWS V14.01,2013-03-04 15:35:00,
2013-03-04 10:40:00,36.1,20.6,29.99,West,275,2.0,6.0,53,0.00,,,0.00,VWS V14.01,2013-03-04 15:40:00,
2013-03-04 10:45:00,36.4,20.5,29.99,West,277,1.0,2.0,52,0.00,,,0.00,VWS V14.01,2013-03-04 15:45:00,
2013-03-04 10:50:00,36.5,20.6,29.99,NNW,347,2.0,4.0,52,0.00,,,0.00,VWS V14.01,2013-03-04 15:50:00,
2013-03-04 10:55:00,36.5,20.6,29.99,NNE,28,4.0,6.0,52,0.00,,,0.00,VWS V14.01,2013-03-04 15:55:00,
2013-03-04 11:00:00,36.5,20.1,29.99,WSW,238,4.0,6.0,51,0.00,,,0.00,VWS V14.01,2013-03-04 16:00:00,
2013-03-04 11:05:00,36.5,20.6,29.99,North,355,2.0,2.0,52,0.00,,,0.00,VWS V14.01,2013-03-04 16:05:00,
2013-03-04 11:10:00,36.6,21.1,29.99,West,279,5.0,7.0,53,0.00,,,0.00,VWS V14.01,2013-03-04 16:10:00,
2013-03-04 11:15:00,36.9,20.9,29.99,SSW,195,4.0,5.0,52,0.00,,,0.00,VWS V14.01,2013-03-04 16:15:00,
2013-03-04 11:20:00,37.2,21.2,29.99,South,182,1.0,6.0,52,0.00,,,0.00,VWS V14.01,2013-03-04 16:20:00,
2013-03-04 11:25:00,37.6,21.1,29.98,NW,306,3.0,8.0,51,0.00,,,0.00,VWS V14.01,2013-03-04 16:25:00,
2013-03-04 11:30:00,37.9,21.9,29.98,NW,323,2.0,8.0,52,0.00,,,0.00,VWS V14.01,2013-03-04 16:30:00,
2013-03-04 11:35:00,38.0,21.0,29.98,NNE,19,3.0,6.0,50,0.00,,,0.00,VWS V14.01,2013-03-04 16:35:00,
2013-03-04 11:40:00,38.2,21.7,29.98,West,275,4.0,8.0,51,0.00,,,0.00,VWS V14.01,2013-03-04 16:40:00,
2013-03-04 11:45:00,38.3,21.3,29.98,WNW,302,7.0,7.0,50,0.00,,,0.00,VWS V14.01,2013-03-04 16:45:00,
2013-03-04 11:50:00,38.4,21.4,29.98,WSW,249,4.0,9.0,50,0.00,,,0.00,VWS V14.01,2013-03-04 16:50:00,
2013-03-04 11:55:00,38.7,21.7,29.97,SW,233,5.0,6.0,50,0.00,,,0.00,VWS V14.01,2013-03-04 16:55:00,
2013-03-04 12:00:00,39.1,21.6,29.98,NNW,332,4.0,5.0,49,0.00,,,0.00,VWS V14.01,2013-03-04 17:00:00,
2013-03-04 12:05:00,39.1,21.6,29.98,WSW,257,2.0,11.0,49,0.00,,,0.00,VWS V14.01,2013-03-04 17:05:00,
2013-03-04 12:10:00,39.2,22.1,29.97,NW,304,6.0,9.0,50,0.00,,,0.00,VWS V14.01,2013-03-04 17:10:00,
2013-03-04 12:15:00,39.2,21.7,29.98,West,279,3.0,7.0,49,0.00,,,0.00,VWS V14.01,2013-03-04 17:15:00,
2013-03-04 12:20:00,39.1,21.6,29.97,NW,325,1.0,5.0,49,0.00,,,0.00,VWS V14.01,2013-03-04 17:20:00,
2013-03-04 12:25:00,39.1,22.0,29.97,NW,310,0.0,4.0,50,0.00,,,0.00,VWS V14.01,2013-03-04 17:25:00,
2013-03-04 12:30:00,39.5,21.9,29.97,NW,313,1.0,5.0,49,0.00,,,0.00,VWS V14.01,2013-03-04 17:30:00,
2013-03-04 12:35:00,39.6,22.5,29.96,NNE,12,1.0,6.0,50,0.00,,,0.00,VWS V14.01,2013-03-04 17:35:00,
2013-03-04 12:40:00,39.8,22.2,29.96,SW,214,2.0,5.0,49,0.00,,,0.00,VWS V14.01,2013-03-04 17:40:00,
2013-03-04 12:45:00,40.1,22.5,29.96,SW,232,2.0,7.0,49,0.00,,,0.00,VWS V14.01,2013-03-04 17:45:00,
2013-03-04 12:50:00,40.1,22.0,29.96,NNW,333,2.0,5.0,48,0.00,,,0.00,VWS V14.01,2013-03-04 17:50:00,
2013-03-04 12:55:00,39.9,21.8,29.96,NNE,15,5.0,11.0,48,0.00,,,0.00,VWS V14.01,2013-03-04 17:55:00,
2013-03-04 13:01:00,40.0,22.4,29.96,North,5,7.0,7.0,49,0.00,,,0.00,VWS V14.01,2013-03-04 18:01:00,
2013-03-04 13:06:00,39.9,22.3,29.96,North,355,4.0,5.0,49,0.00,,,0.00,VWS V14.01,2013-03-04 18:06:00,
2013-03-04 13:10:00,40.0,22.4,29.95,NE,44,1.0,4.0,49,0.00,,,0.00,VWS V14.01,2013-03-04 18:10:00,
2013-03-04 13:16:00,40.3,23.1,29.95,WSW,243,4.0,7.0,50,0.00,,,0.00,VWS V14.01,2013-03-04 18:16:00,
2013-03-04 13:21:00,40.6,23.0,29.95,NNE,28,4.0,6.0,49,0.00,,,0.00,VWS V14.01,2013-03-04 18:21:00,
2013-03-04 13:26:00,40.5,22.9,29.95,NNW,327,1.0,2.0,49,0.00,,,0.00,VWS V14.01,2013-03-04 18:26:00,
2013-03-04 13:29:00,40.4,22.8,29.95,NW,306,1.0,5.0,49,0.00,,,0.00,VWS V14.01,2013-03-04 18:29:00,
2013-03-04 13:30:00,40.4,22.8,29.95,NNW,336,2.0,2.0,49,0.00,,,0.00,VWS V14.01,2013-03-04 18:30:00,
2013-03-04 13:35:00,40.6,23.0,29.95,NNW,348,4.0,4.0,49,0.00,,,0.00,VWS V14.01,2013-03-04 18:35:00,
2013-03-04 13:40:00,40.6,23.0,29.95,NNE,25,4.0,6.0,49,0.00,,,0.00,VWS V14.01,2013-03-04 18:40:00,
2013-03-04 13:45:00,40.8,22.6,29.95,NNW,335,0.0,1.0,48,0.00,,,0.00,VWS V14.01,2013-03-04 18:45:00,
2013-03-04 13:50:00,40.9,23.7,29.95,West,267,0.0,0.0,50,0.00,,,0.00,VWS V14.01,2013-03-04 18:50:00,
2013-03-04 13:55:00,41.2,23.0,29.94,WSW,258,1.0,1.0,48,0.00,,,0.00,VWS V14.01,2013-03-04 18:55:00,
2013-03-04 14:00:00,41.4,23.7,29.95,WNW,290,7.0,9.0,49,0.00,,,0.00,VWS V14.01,2013-03-04 19:00:00,
2013-03-04 14:05:00,41.4,23.7,29.94,WNW,284,6.0,6.0,49,0.00,,,0.00,VWS V14.01,2013-03-04 19:05:00,
2013-03-04 14:10:00,41.1,22.9,29.94,WNW,283,6.0,6.0,48,0.00,,,0.00,VWS V14.01,2013-03-04 19:10:00,
2013-03-04 14:15:00,41.1,22.9,29.94,WNW,283,2.0,3.0,48,0.00,,,0.00,VWS V14.01,2013-03-04 19:15:00,
2013-03-04 14:20:00,41.1,23.4,29.94,North,355,2.0,7.0,49,0.00,,,0.00,VWS V14.01,2013-03-04 19:20:00,
2013-03-04 14:24:00,41.1,23.4,29.94,NW,311,2.0,4.0,49,0.00,,,0.00,VWS V14.01,2013-03-04 19:24:00,
2013-03-04 14:29:00,41.4,24.2,29.94,West,281,2.0,4.0,50,0.00,,,0.00,VWS V14.01,2013-03-04 19:29:00,
2013-03-04 14:35:00,41.7,23.0,29.94,WNW,286,5.0,8.0,47,0.00,,,0.00,VWS V14.01,2013-03-04 19:35:00,
2013-03-04 14:40:00,41.8,24.1,29.94,SSW,194,4.0,5.0,49,0.00,,,0.00,VWS V14.01,2013-03-04 19:40:00,
2013-03-04 14:45:00,42.2,23.4,29.93,NW,317,4.0,6.0,47,0.00,,,0.00,VWS V14.01,2013-03-04 19:45:00,
2013-03-04 14:50:00,42.3,24.0,29.94,NW,307,4.0,5.0,48,0.00,,,0.00,VWS V14.01,2013-03-04 19:50:00,
2013-03-04 14:55:00,42.5,23.7,29.94,WSW,250,6.0,7.0,47,0.00,,,0.00,VWS V14.01,2013-03-04 19:55:00,
2013-03-04 15:00:00,42.4,23.1,29.93,West,269,1.0,6.0,46,0.00,,,0.00,VWS V14.01,2013-03-04 20:00:00,
2013-03-04 15:05:00,42.5,23.7,29.93,North,5,2.0,3.0,47,0.00,,,0.00,VWS V14.01,2013-03-04 20:05:00,
2013-03-04 15:10:00,42.5,23.7,29.93,WSW,253,2.0,2.0,47,0.00,,,0.00,VWS V14.01,2013-03-04 20:10:00,
2013-03-04 15:15:00,42.6,23.8,29.93,NW,313,4.0,4.0,47,0.00,,,0.00,VWS V14.01,2013-03-04 20:15:00,
2013-03-04 15:20:00,42.9,23.6,29.93,NNE,26,2.0,5.0,46,0.00,,,0.00,VWS V14.01,2013-03-04 20:20:00,
2013-03-04 15:25:00,43.1,23.2,29.93,WSW,255,1.0,7.0,45,0.00,,,0.00,VWS V14.01,2013-03-04 20:25:00,
2013-03-04 15:30:00,43.3,23.9,29.93,North,5,0.0,3.0,46,0.00,,,0.00,VWS V14.01,2013-03-04 20:30:00,
2013-03-04 15:35:00,43.4,24.0,29.93,North,350,2.0,3.0,46,0.00,,,0.00,VWS V14.01,2013-03-04 20:35:00,
2013-03-04 15:40:00,43.5,23.6,29.93,South,187,4.0,7.0,45,0.00,,,0.00,VWS V14.01,2013-03-04 20:40:00,
2013-03-04 15:45:00,43.2,23.3,29.93,WNW,287,1.0,3.0,45,0.00,,,0.00,VWS V14.01,2013-03-04 20:45:00,
2013-03-04 15:50:00,43.3,23.9,29.93,WNW,298,6.0,6.0,46,0.00,,,0.00,VWS V14.01,2013-03-04 20:50:00,
2013-03-04 15:55:00,43.1,23.2,29.93,NNW,327,2.0,7.0,45,0.00,,,0.00,VWS V14.01,2013-03-04 20:55:00,
2013-03-04 16:00:00,43.0,23.1,29.93,SSW,210,1.0,5.0,45,0.00,,,0.00,VWS V14.01,2013-03-04 21:00:00,
2013-03-04 16:05:00,43.0,23.1,29.93,NNW,343,1.0,7.0,45,0.00,,,0.00,VWS V14.01,2013-03-04 21:05:00,
2013-03-04 16:10:00,42.9,23.6,29.93,NNE,33,5.0,14.0,46,0.00,,,0.00,VWS V14.01,2013-03-04 21:10:00,
2013-03-04 16:15:00,42.7,22.9,29.93,North,5,1.0,6.0,45,0.00,,,0.00,VWS V14.01,2013-03-04 21:15:00,
2013-03-04 16:20:00,42.7,22.9,29.93,NNE,29,4.0,6.0,45,0.00,,,0.00,VWS V14.01,2013-03-04 21:20:00,
2013-03-04 16:25:00,42.7,23.4,29.94,NW,321,1.0,1.0,46,0.00,,,0.00,VWS V14.01,2013-03-04 21:25:00,
2013-03-04 16:30:00,42.8,23.5,29.93,NW,311,1.0,6.0,46,0.00,,,0.00,VWS V14.01,2013-03-04 21:30:00,
2013-03-04 16:35:00,42.9,23.0,29.93,NW,307,4.0,5.0,45,0.00,,,0.00,VWS V14.01,2013-03-04 21:35:00,
2013-03-04 16:40:00,42.8,23.5,29.93,NW,304,0.0,1.0,46,0.00,,,0.00,VWS V14.01,2013-03-04 21:40:00,
2013-03-04 16:45:00,42.9,23.6,29.93,West,267,6.0,7.0,46,0.00,,,0.00,VWS V14.01,2013-03-04 21:45:00,
2013-03-04 16:50:00,42.8,23.5,29.93,NE,36,2.0,2.0,46,0.00,,,0.00,VWS V14.01,2013-03-04 21:50:00,
2013-03-04 16:55:00,42.9,23.6,29.94,North,351,1.0,1.0,46,0.00,,,0.00,VWS V14.01,2013-03-04 21:55:00,
2013-03-04 17:00:00,42.9,23.0,29.94,West,277,0.0,2.0,45,0.00,,,0.00,VWS V14.01,2013-03-04 22:00:00,
2013-03-04 17:05:00,42.9,23.0,29.94,WNW,288,0.0,2.0,45,0.00,,,0.00,VWS V14.01,2013-03-04 22:05:00,
2013-03-04 17:10:00,42.7,22.3,29.95,WNW,303,4.0,6.0,44,0.00,,,0.00,VWS V14.01,2013-03-04 22:10:00,
2013-03-04 17:15:00,42.4,22.0,29.94,NNW,342,5.0,5.0,44,0.00,,,0.00,VWS V14.01,2013-03-04 22:15:00,
2013-03-04 17:20:00,42.2,22.4,29.95,West,275,1.0,2.0,45,0.00,,,0.00,VWS V14.01,2013-03-04 22:20:00,
2013-03-04 17:25:00,42.0,21.7,29.95,NW,313,0.0,5.0,44,0.00,,,0.00,VWS V14.01,2013-03-04 22:25:00,
2013-03-04 17:30:00,41.9,22.1,29.95,NW,314,2.0,2.0,45,0.00,,,0.00,VWS V14.01,2013-03-04 22:30:00,
2013-03-04 17:35:00,41.7,21.9,29.95,West,261,1.0,2.0,45,0.00,,,0.00,VWS V14.01,2013-03-04 22:35:00,
2013-03-04 17:40:00,41.6,21.9,29.96,NW,322,1.0,7.0,45,0.00,,,0.00,VWS V14.01,2013-03-04 22:40:00,
2013-03-04 17:45:00,41.4,21.7,29.96,North,9,0.0,2.0,45,0.00,,,0.00,VWS V14.01,2013-03-04 22:45:00,
2013-03-04 17:49:00,41.3,21.6,29.96,North,355,0.0,3.0,45,0.00,,,0.00,VWS V14.01,2013-03-04 22:49:00,
2013-03-04 17:54:00,41.1,21.9,29.96,NW,313,1.0,2.0,46,0.00,,,0.00,VWS V14.01,2013-03-04 22:54:00,
2013-03-04 17:59:00,40.9,22.2,29.97,WSW,253,0.0,1.0,47,0.00,,,0.00,VWS V14.01,2013-03-04 22:59:00,
2013-03-04 18:04:00,40.6,21.5,29.97,NW,319,0.0,2.0,46,0.00,,,0.00,VWS V14.01,2013-03-04 23:04:00,
2013-03-04 18:09:00,40.4,21.8,29.97,NE,44,0.0,0.0,47,0.00,,,0.00,VWS V14.01,2013-03-04 23:09:00,
2013-03-04 18:14:00,40.2,21.6,29.97,West,274,1.0,5.0,47,0.00,,,0.00,VWS V14.01,2013-03-04 23:14:00,
2013-03-04 18:19:00,40.1,22.0,29.97,West,274,0.0,1.0,48,0.00,,,0.00,VWS V14.01,2013-03-04 23:19:00,
2013-03-04 18:24:00,39.9,22.3,29.97,West,274,0.0,0.0,49,0.00,,,0.00,VWS V14.01,2013-03-04 23:24:00,
2013-03-04 18:29:00,39.6,22.5,29.97,West,274,0.0,0.0,50,0.00,,,0.00,VWS V14.01,2013-03-04 23:29:00,
2013-03-04 18:34:00,39.4,21.8,29.98,West,274,1.0,1.0,49,0.00,,,0.00,VWS V14.01,2013-03-04 23:34:00,
2013-03-04 18:40:00,39.2,22.1,29.98,NNW,344,0.0,1.0,50,0.00,,,0.00,VWS V14.01,2013-03-04 23:40:00,
2013-03-04 18:45:00,38.9,21.4,29.98,SW,214,1.0,6.0,49,0.00,,,0.00,VWS V14.01,2013-03-04 23:45:00,
2013-03-04 18:50:00,38.9,21.4,29.99,West,267,0.0,0.0,49,0.00,,,0.00,VWS V14.01,2013-03-04 23:50:00,
2013-03-04 18:55:00,38.8,21.3,29.99,NW,317,0.0,2.0,49,0.00,,,0.00,VWS V14.01,2013-03-04 23:55:00,
2013-03-04 19:00:00,38.7,21.2,29.99,North,10,1.0,2.0,49,0.00,,,0.00,VWS V14.01,2013-03-05 00:00:00,
2013-03-04 19:05:00,38.6,21.1,29.99,NNE,17,0.0,1.0,49,0.00,,,0.00,VWS V14.01,2013-03-05 00:05:00,
2013-03-04 19:10:00,38.5,21.5,29.99,NW,322,0.0,2.0,50,0.00,,,0.00,VWS V14.01,2013-03-05 00:10:00,
2013-03-04 19:15:00,38.4,21.4,29.99,NW,322,0.0,0.0,50,0.00,,,0.00,VWS V14.01,2013-03-05 00:15:00,
2013-03-04 19:20:00,38.3,21.3,30.00,NW,322,0.0,1.0,50,0.00,,,0.00,VWS V14.01,2013-03-05 00:20:00,
2013-03-04 19:25:00,38.1,20.6,30.00,WSW,250,1.0,4.0,49,0.00,,,0.00,VWS V14.01,2013-03-05 00:25:00,
2013-03-04 19:30:00,38.0,21.0,30.00,West,273,0.0,0.0,50,0.00,,,0.00,VWS V14.01,2013-03-05 00:30:00,
2013-03-04 19:35:00,37.9,21.4,30.00,West,273,0.0,0.0,51,0.00,,,0.00,VWS V14.01,2013-03-05 00:35:00,
2013-03-04 19:40:00,37.7,21.2,30.00,West,273,0.0,0.0,51,0.00,,,0.00,VWS V14.01,2013-03-05 00:40:00,
2013-03-04 19:45:00,37.5,21.5,30.00,West,271,0.0,1.0,52,0.00,,,0.00,VWS V14.01,2013-03-05 00:45:00,
2013-03-04 19:50:00,37.4,20.9,30.00,NNE,24,0.0,1.0,51,0.00,,,0.00,VWS V14.01,2013-03-05 00:50:00,
2013-03-04 19:55:00,37.4,21.4,30.00,WNW,287,1.0,2.0,52,0.00,,,0.00,VWS V14.01,2013-03-05 00:55:00,
2013-03-04 19:59:00,37.3,21.3,30.00,WNW,286,0.0,0.0,52,0.00,,,0.00,VWS V14.01,2013-03-05 00:59:00,
2013-03-04 20:04:00,37.2,21.7,30.00,WNW,287,0.0,1.0,53,0.00,,,0.00,VWS V14.01,2013-03-05 01:04:00,
2013-03-04 20:09:00,37.0,21.0,30.01,WNW,302,0.0,2.0,52,0.00,,,0.00,VWS V14.01,2013-03-05 01:09:00,
2013-03-04 20:15:00,36.9,21.4,30.01,West,267,1.0,1.0,53,0.00,,,0.00,VWS V14.01,2013-03-05 01:15:00,
2013-03-04 20:19:00,36.8,21.3,30.01,WNW,292,1.0,1.0,53,0.00,,,0.00,VWS V14.01,2013-03-05 01:19:00,
2013-03-04 20:25:00,36.9,21.4,30.01,WSW,253,3.0,3.0,53,0.00,,,0.00,VWS V14.01,2013-03-05 01:25:00,
2013-03-04 20:30:00,36.8,21.3,30.01,WNW,302,0.0,1.0,53,0.00,,,0.00,VWS V14.01,2013-03-05 01:30:00,
2013-03-04 20:35:00,36.8,21.3,30.01,WNW,302,0.0,2.0,53,0.00,,,0.00,VWS V14.01,2013-03-05 01:35:00,
2013-03-04 20:40:00,36.7,21.2,30.02,North,11,0.0,1.0,53,0.00,,,0.00,VWS V14.01,2013-03-05 01:40:00,
2013-03-04 20:45:00,36.6,21.1,30.02,NW,318,0.0,0.0,53,0.00,,,0.00,VWS V14.01,2013-03-05 01:45:00,
2013-03-04 20:50:00,36.5,21.5,30.02,West,274,0.0,1.0,54,0.00,,,0.00,VWS V14.01,2013-03-05 01:50:00,
2013-03-04 20:55:00,36.5,21.0,30.02,West,274,0.0,1.0,53,0.00,,,0.00,VWS V14.01,2013-03-05 01:55:00,
2013-03-04 21:00:00,36.4,21.4,30.02,West,274,0.0,0.0,54,0.00,,,0.00,VWS V14.01,2013-03-05 02:00:00,
2013-03-04 21:05:00,36.3,21.3,30.02,West,274,0.0,0.0,54,0.00,,,0.00,VWS V14.01,2013-03-05 02:05:00,
2013-03-04 21:10:00,36.1,21.1,30.03,West,274,0.0,0.0,54,0.00,,,0.00,VWS V14.01,2013-03-05 02:10:00,
2013-03-04 21:15:00,36.0,21.0,30.03,West,274,0.0,0.0,54,0.00,,,0.00,VWS V14.01,2013-03-05 02:15:00,
2013-03-04 21:20:00,35.8,21.2,30.03,West,274,0.0,0.0,55,0.00,,,0.00,VWS V14.01,2013-03-05 02:20:00,
2013-03-04 21:25:00,35.7,21.6,30.03,West,274,0.0,0.0,56,0.00,,,0.00,VWS V14.01,2013-03-05 02:25:00,
2013-03-04 21:30:00,35.5,21.4,30.03,West,274,0.0,0.0,56,0.00,,,0.00,VWS V14.01,2013-03-05 02:30:00,
2013-03-04 21:35:00,35.3,21.6,30.03,West,274,0.0,0.0,57,0.00,,,0.00,VWS V14.01,2013-03-05 02:35:00,
2013-03-04 21:40:00,35.0,21.3,30.03,West,274,0.0,0.0,57,0.00,,,0.00,VWS V14.01,2013-03-05 02:40:00,
2013-03-04 21:45:00,34.8,21.5,30.03,West,274,0.0,0.0,58,0.00,,,0.00,VWS V14.01,2013-03-05 02:45:00,
2013-03-04 21:50:00,34.5,21.7,30.03,West,274,0.0,0.0,59,0.00,,,0.00,VWS V14.01,2013-03-05 02:50:00,
2013-03-04 21:55:00,34.2,21.4,30.03,West,274,0.0,0.0,59,0.00,,,0.00,VWS V14.01,2013-03-05 02:55:00,
2013-03-04 22:00:00,34.1,21.7,30.03,West,274,0.0,0.0,60,0.00,,,0.00,VWS V14.01,2013-03-05 03:00:00,
2013-03-04 22:05:00,33.8,21.4,30.03,West,274,0.0,0.0,60,0.00,,,0.00,VWS V14.01,2013-03-05 03:05:00,
2013-03-04 22:10:00,33.7,21.3,30.03,West,274,0.0,0.0,60,0.00,,,0.00,VWS V14.01,2013-03-05 03:10:00,
2013-03-04 22:15:00,33.5,21.1,30.03,West,274,0.0,0.0,60,0.00,,,0.00,VWS V14.01,2013-03-05 03:15:00,
2013-03-04 22:20:00,33.3,21.3,30.03,West,274,0.0,0.0,61,0.00,,,0.00,VWS V14.01,2013-03-05 03:20:00,
2013-03-04 22:25:00,33.1,21.1,30.02,West,274,0.0,0.0,61,0.00,,,0.00,VWS V14.01,2013-03-05 03:25:00,
2013-03-04 22:30:00,32.9,20.9,30.02,West,274,0.0,0.0,61,0.00,,,0.00,VWS V14.01,2013-03-05 03:30:00,
2013-03-04 22:35:00,32.8,21.2,30.03,West,274,0.0,0.0,62,0.00,,,0.00,VWS V14.01,2013-03-05 03:35:00,
2013-03-04 22:40:00,32.6,21.4,30.03,West,274,0.0,0.0,63,0.00,,,0.00,VWS V14.01,2013-03-05 03:40:00,
2013-03-04 22:45:00,32.4,21.2,30.02,West,274,0.0,0.0,63,0.00,,,0.00,VWS V14.01,2013-03-05 03:45:00,
2013-03-04 22:50:00,32.3,21.5,30.02,West,274,0.0,0.0,64,0.00,,,0.00,VWS V14.01,2013-03-05 03:50:00,
2013-03-04 22:55:00,32.1,21.3,30.02,West,274,0.0,0.0,64,0.00,,,0.00,VWS V14.01,2013-03-05 03:55:00,
2013-03-04 23:00:00,32.0,21.6,30.02,West,274,0.0,0.0,65,0.00,,,0.00,VWS V14.01,2013-03-05 04:00:00,
2013-03-04 23:04:00,31.8,21.4,30.02,West,274,0.0,0.0,65,0.00,,,0.00,VWS V14.01,2013-03-05 04:04:00,
2013-03-04 23:09:00,31.6,21.2,30.01,West,274,0.0,0.0,65,0.00,,,0.00,VWS V14.01,2013-03-05 04:09:00,
2013-03-04 23:14:00,31.4,21.7,30.02,West,274,0.0,0.0,67,0.00,,,0.00,VWS V14.01,2013-03-05 04:14:00,
2013-03-04 23:19:00,31.2,21.5,30.02,West,274,0.0,0.0,67,0.00,,,0.00,VWS V14.01,2013-03-05 04:19:00,
2013-03-04 23:24:00,31.0,21.3,30.02,West,274,0.0,0.0,67,0.00,,,0.00,VWS V14.01,2013-03-05 04:24:00,
2013-03-04 23:29:00,30.8,21.5,30.02,West,274,0.0,0.0,68,0.00,,,0.00,VWS V14.01,2013-03-05 04:29:00,
2013-03-04 23:34:00,30.7,21.8,30.02,West,274,0.0,0.0,69,0.00,,,0.00,VWS V14.01,2013-03-05 04:34:00,
2013-03-04 23:39:00,30.5,21.6,30.02,West,274,0.0,0.0,69,0.00,,,0.00,VWS V14.01,2013-03-05 04:39:00,
2013-03-04 23:44:00,30.3,21.7,30.02,West,274,0.0,0.0,70,0.00,,,0.00,VWS V14.01,2013-03-05 04:44:00,
2013-03-04 23:49:00,30.2,21.6,30.02,West,274,0.0,0.0,70,0.00,,,0.00,VWS V14.01,2013-03-05 04:49:00,
2013-03-04 23:54:00,30.0,21.4,30.02,West,274,0.0,0.0,70,0.00,,,0.00,VWS V14.01,2013-03-05 04:54:00,
2013-03-04 23:59:00,29.9,21.3,30.02,West,274,0.0,0.0,70,0.00,,,0.00,VWS V14.01,2013-03-05 04:59:00,